Time;durP1;ratioP1;P1;durP2;ratioP2;P2;SDS_P1;SDS_P2;PMS_P1;PMS_P2;Temp;Humidity;BMP_temperature;BMP_pressure;BME280_temperature;BME280_humidity;BME280_pressure;Samples;Min_cycle;Max_cycle;Signal;HPM_P1;HPM_P2
2023/07/10 00:00:58;;;;;;;8.13;7.45;;;;;;;21.87;86.66;99599.16;5114734;28;20554;-74
2023/07/10 00:03:24;;;;;;;7.82;7.22;;;;;;;21.80;87.01;99595.97;5114602;28;20612;-75
2023/07/10 00:05:51;;;;;;;8.18;7.50;;;;;;;21.78;87.42;99595.47;5110861;28;20193;-74
2023/07/10 00:08:18;;;;;;;9.77;7.80;;;;;;;21.76;87.71;99591.41;5100394;28;20615;-74
2023/07/10 00:10:45;;;;;;;7.93;7.22;;;;;;;21.74;88.41;99593.63;5102778;28;20219;-75
2023/07/10 00:13:12;;;;;;;7.95;7.35;;;;;;;21.76;88.48;99596.84;5086768;28;20197;-74
2023/07/10 00:15:39;;;;;;;8.43;7.80;;;;;;;21.76;88.66;99596.84;5108289;28;20212;-76
2023/07/10 00:18:15;;;;;;;8.43;7.72;;;;;;;21.75;89.19;99587.84;5087560;28;20678;-76
2023/07/10 00:20:42;;;;;;;8.43;7.82;;;;;;;21.71;89.88;99586.81;5088972;28;20209;-77
2023/07/10 00:23:09;;;;;;;8.68;7.97;;;;;;;21.63;90.66;99592.94;5114012;28;20201;-75
2023/07/10 00:25:36;;;;;;;8.23;7.43;;;;;;;21.62;91.39;99593.22;5113958;28;20245;-78
2023/07/10 00:28:20;;;;;;;8.25;7.50;;;;;;;21.57;91.14;99598.72;5101562;28;20674;-77
2023/07/10 00:30:49;;;;;;;8.48;7.70;;;;;;;21.51;91.86;99597.97;5108335;28;20201;-75
2023/07/10 00:33:19;;;;;;;8.73;8.10;;;;;;;21.48;92.44;99602.13;5093450;28;20195;-75
2023/07/10 00:35:46;;;;;;;8.70;8.00;;;;;;;21.42;93.21;99606.00;5110584;28;20188;-75
2023/07/10 00:38:28;;;;;;;8.35;7.65;;;;;;;21.33;94.98;99596.84;5092212;28;20213;-76
2023/07/10 00:40:57;;;;;;;8.45;7.75;;;;;;;21.26;96.27;99606.47;5113322;28;20204;-74
2023/07/10 00:43:45;;;;;;;8.73;8.00;;;;;;;21.23;96.34;99602.41;5092282;28;20185;-73
2023/07/10 00:46:17;;;;;;;8.07;7.30;;;;;;;21.19;95.98;99612.25;5091190;28;20671;-74
2023/07/10 00:49:03;;;;;;;8.07;7.28;;;;;;;21.20;96.09;99603.00;5095898;28;20209;-75
2023/07/10 00:51:42;;;;;;;8.85;8.15;;;;;;;21.16;96.46;99607.41;5094898;28;20745;-75
2023/07/10 00:54:27;;;;;;;8.88;8.07;;;;;;;21.16;96.81;99603.88;5095934;28;20194;-75
2023/07/10 00:56:55;;;;;;;8.05;7.38;;;;;;;21.13;96.85;99609.88;5095480;28;20199;-75
2023/07/10 00:59:24;;;;;;;8.30;7.60;;;;;;;21.14;97.21;99611.53;5113786;28;20770;-75
2023/07/10 01:02:21;;;;;;;8.05;7.35;;;;;;;21.13;97.46;99601.69;5095761;28;20191;-75
2023/07/10 01:04:53;;;;;;;7.97;7.25;;;;;;;21.13;97.66;99608.00;5054274;28;20241;-75
2023/07/10 01:07:22;;;;;;;8.25;7.57;;;;;;;21.14;97.60;99606.09;5088011;28;20200;-74
2023/07/10 01:09:56;;;;;;;8.18;7.50;;;;;;;21.12;97.83;99589.19;5062072;28;20570;-75
2023/07/10 01:12:24;;;;;;;8.70;7.93;;;;;;;21.14;97.57;99597.91;5113376;28;20671;-75
2023/07/10 01:14:50;;;;;;;8.57;7.85;;;;;;;21.17;97.14;99597.31;5093803;28;20290;-75
2023/07/10 01:17:17;;;;;;;8.60;7.80;;;;;;;21.20;97.49;99591.28;5094850;28;20262;-74
2023/07/10 01:19:45;;;;;;;8.13;7.43;;;;;;;21.25;96.70;99589.31;5110145;28;20307;-74
2023/07/10 01:22:13;;;;;;;8.00;7.30;;;;;;;21.25;96.65;99586.59;5113017;28;20603;-76
2023/07/10 01:24:40;;;;;;;8.13;7.53;;;;;;;21.31;96.65;99593.63;5094954;28;20659;-75
2023/07/10 01:27:11;;;;;;;8.00;7.40;;;;;;;21.32;96.57;99588.97;5094694;28;20607;-75
2023/07/10 01:29:43;;;;;;;9.18;8.27;;;;;;;21.31;96.59;99587.34;5091329;28;20279;-74
2023/07/10 01:32:13;;;;;;;8.13;7.32;;;;;;;21.29;96.26;99581.38;5094948;28;20670;-75
2023/07/10 01:34:45;;;;;;;8.13;7.50;;;;;;;21.34;96.34;99586.75;5112773;28;20732;-75
2023/07/10 01:37:12;;;;;;;7.50;6.90;;;;;;;21.32;96.19;99587.03;5094805;28;20195;-75
2023/07/10 01:39:42;;;;;;;7.85;7.25;;;;;;;21.33;96.40;99579.69;5108234;28;20205;-74
2023/07/10 01:42:09;;;;;;;8.25;7.55;;;;;;;21.33;96.42;99587.84;5094747;28;20196;-74
2023/07/10 01:44:39;;;;;;;8.10;7.30;;;;;;;21.32;96.73;99583.53;5112620;28;20191;-78
2023/07/10 01:47:07;;;;;;;8.02;7.43;;;;;;;21.25;96.97;99580.34;5112798;28;20191;-74
2023/07/10 01:49:38;;;;;;;8.40;7.70;;;;;;;21.25;97.36;99586.59;5087806;28;20277;-76
2023/07/10 01:52:07;;;;;;;8.00;7.38;;;;;;;21.17;97.77;99584.53;5102811;28;20197;-75
2023/07/10 01:54:34;;;;;;;8.45;7.68;;;;;;;21.15;98.37;99583.97;5077489;28;20220;-76
2023/07/10 01:57:01;;;;;;;7.78;7.07;;;;;;;21.12;98.62;99597.34;5112394;28;20281;-75
2023/07/10 01:59:28;;;;;;;8.45;7.65;;;;;;;21.03;99.40;99598.00;5087737;28;20756;-74
2023/07/10 02:01:55;;;;;;;8.90;8.10;;;;;;;21.00;99.65;99593.09;5081817;28;20197;-75
2023/07/10 02:04:22;;;;;;;8.27;7.57;;;;;;;20.92;100.00;99588.28;5087404;28;20236;-75
2023/07/10 02:06:49;;;;;;;7.97;7.38;;;;;;;20.90;100.00;99595.94;5100653;28;20184;-75
2023/07/10 02:09:16;;;;;;;8.50;7.68;;;;;;;20.86;100.00;99583.16;5101154;28;20610;-75
2023/07/10 02:11:42;;;;;;;8.90;8.00;;;;;;;20.84;100.00;99590.84;5084613;28;20614;-76
2023/07/10 02:14:09;;;;;;;8.07;7.47;;;;;;;20.78;100.00;99578.38;5080023;28;20587;-75
2023/07/10 02:16:36;;;;;;;8.35;7.65;;;;;;;20.73;100.00;99584.66;5112366;28;20188;-75
2023/07/10 02:19:04;;;;;;;8.13;7.53;;;;;;;20.71;100.00;99588.78;5107798;28;20216;-76
2023/07/10 02:21:32;;;;;;;7.95;7.32;;;;;;;20.63;100.00;99582.03;5092455;28;20212;-75
2023/07/10 02:23:59;;;;;;;8.93;8.13;;;;;;;20.55;100.00;99578.03;5112008;28;20274;-75
2023/07/10 02:26:28;;;;;;;8.18;7.47;;;;;;;20.46;100.00;99573.50;5092060;28;20670;-75
2023/07/10 02:28:57;;;;;;;8.30;7.70;;;;;;;20.39;100.00;99576.53;5112206;28;20290;-75
2023/07/10 02:31:24;;;;;;;8.10;7.40;;;;;;;20.32;100.00;99586.13;5111832;28;20215;-76
2023/07/10 02:33:51;;;;;;;8.75;8.05;;;;;;;20.15;100.00;99586.50;5112027;28;20203;-75
2023/07/10 02:36:18;;;;;;;8.10;7.50;;;;;;;20.08;100.00;99580.56;5086671;28;20200;-76
2023/07/10 02:38:44;;;;;;;8.90;8.20;;;;;;;20.05;100.00;99578.41;5111751;28;20633;-75
2023/07/10 02:41:11;;;;;;;8.67;7.77;;;;;;;20.08;100.00;99581.38;5110311;28;20654;-74
2023/07/10 02:43:37;;;;;;;8.75;8.00;;;;;;;20.02;100.00;99587.13;5092368;28;20227;-75
2023/07/10 02:46:04;;;;;;;8.23;7.53;;;;;;;19.97;100.00;99579.81;5087719;28;20570;-74
2023/07/10 02:48:31;;;;;;;8.52;7.78;;;;;;;19.91;100.00;99586.41;5111805;28;20195;-76
2023/07/10 02:50:58;;;;;;;8.25;7.63;;;;;;;19.85;100.00;99583.97;5111450;28;20610;-75
2023/07/10 02:53:24;;;;;;;8.77;8.00;;;;;;;19.77;100.00;99585.41;5111843;28;20275;-75
2023/07/10 02:55:51;;;;;;;9.23;8.35;;;;;;;19.65;100.00;99582.19;5102684;28;20223;-76
2023/07/10 02:58:18;;;;;;;8.65;7.95;;;;;;;19.57;100.00;99593.63;5106432;28;20580;-75
2023/07/10 03:00:44;;;;;;;8.70;8.03;;;;;;;19.53;100.00;99584.44;5108286;28;20275;-75
2023/07/10 03:03:11;;;;;;;8.57;7.85;;;;;;;19.46;100.00;99582.00;5069393;28;20287;-75
2023/07/10 03:05:37;;;;;;;8.83;8.03;;;;;;;19.42;100.00;99582.81;5088830;28;20231;-76
2023/07/10 03:08:04;;;;;;;8.83;8.13;;;;;;;19.40;100.00;99580.38;5090491;28;20653;-78
2023/07/10 03:10:31;;;;;;;9.13;8.30;;;;;;;19.39;100.00;99586.09;5087992;28;21192;-76
2023/07/10 03:12:57;;;;;;;9.07;8.20;;;;;;;19.34;100.00;99585.03;5080843;28;20279;-75
2023/07/10 03:15:24;;;;;;;8.63;8.00;;;;;;;19.33;100.00;99590.72;5081547;28;20226;-74
2023/07/10 03:17:51;;;;;;;8.63;7.83;;;;;;;19.29;100.00;99586.94;5082285;28;20198;-75
2023/07/10 03:20:18;;;;;;;8.17;7.57;;;;;;;19.33;100.00;99593.44;5074482;28;20219;-74
2023/07/10 03:22:44;;;;;;;8.50;7.70;;;;;;;19.31;100.00;99596.47;5082013;28;20610;-74
2023/07/10 03:25:11;;;;;;;8.90;8.20;;;;;;;19.31;100.00;99596.47;5082503;28;20288;-74
2023/07/10 03:27:37;;;;;;;8.63;8.03;;;;;;;19.35;100.00;99588.56;5094891;28;20260;-74
2023/07/10 03:30:05;;;;;;;9.20;8.50;;;;;;;19.40;100.00;99591.25;5094984;28;20708;-75
2023/07/10 03:32:32;;;;;;;8.70;8.00;;;;;;;19.42;100.00;99590.97;5093315;28;20956;-74
2023/07/10 03:34:59;;;;;;;8.73;8.00;;;;;;;19.41;100.00;99586.63;5093473;28;20192;-75
2023/07/10 03:37:25;;;;;;;8.70;7.90;;;;;;;19.46;100.00;99582.00;5094914;28;20255;-75
2023/07/10 03:39:52;;;;;;;9.43;8.63;;;;;;;19.45;100.00;99579.59;5094672;28;20261;-75
2023/07/10 03:42:19;;;;;;;9.47;8.67;;;;;;;19.54;100.00;99578.72;5091001;28;20204;-75
2023/07/10 03:44:46;;;;;;;8.70;8.00;;;;;;;19.61;100.00;99579.22;5094696;28;20283;-75
2023/07/10 03:47:12;;;;;;;9.03;8.20;;;;;;;19.69;100.00;99577.84;5094403;28;20240;-75
2023/07/10 03:49:39;;;;;;;9.87;8.93;;;;;;;19.72;100.00;99578.09;5083716;28;20772;-76
2023/07/10 03:52:06;;;;;;;9.23;8.27;;;;;;;19.78;100.00;99576.16;5086188;28;20273;-75
2023/07/10 03:54:33;;;;;;;8.67;7.87;;;;;;;19.85;100.00;99582.06;5089210;28;20219;-75
2023/07/10 03:57:00;;;;;;;9.00;8.20;;;;;;;19.92;100.00;99579.88;5088267;28;20194;-75
2023/07/10 03:59:26;;;;;;;8.23;7.53;;;;;;;19.99;100.00;99580.34;5085495;28;20229;-75
2023/07/10 04:01:53;;;;;;;9.33;8.50;;;;;;;20.08;100.00;99586.00;5088332;28;20271;-76
2023/07/10 04:04:20;;;;;;;9.27;8.47;;;;;;;20.17;100.00;99587.03;5100426;28;20249;-75
2023/07/10 04:06:46;;;;;;;9.10;8.40;;;;;;;20.25;100.00;99591.84;5111186;28;20247;-74
2023/07/10 04:09:15;;;;;;;8.47;7.87;;;;;;;20.37;100.00;99586.09;5114360;28;20207;-75
2023/07/10 04:11:42;;;;;;;9.17;8.27;;;;;;;21.07;100.00;99590.03;5111939;28;20226;-75
2023/07/10 04:14:08;;;;;;;8.50;7.80;;;;;;;22.38;100.00;99591.03;5113107;28;20303;-75
2023/07/10 04:16:35;;;;;;;8.97;8.17;;;;;;;23.25;100.00;99582.91;5112212;28;20191;-75
2023/07/10 04:19:02;;;;;;;8.03;7.43;;;;;;;24.29;100.00;99586.69;5091027;28;20564;-74
2023/07/10 04:21:31;;;;;;;8.68;7.85;;;;;;;25.11;100.00;99594.44;5114129;28;20233;-74
2023/07/10 04:23:58;;;;;;;8.43;7.63;;;;;;;25.71;100.00;99587.25;5094791;28;20283;-78
2023/07/10 04:26:25;;;;;;;8.52;7.82;;;;;;;25.74;100.00;99594.84;5114278;28;20253;-75
2023/07/10 04:28:54;;;;;;;8.82;8.02;;;;;;;26.47;100.00;99598.59;5112735;28;20197;-75
2023/07/10 04:31:22;;;;;;;8.30;7.60;;;;;;;27.09;99.12;99598.97;5113921;28;20193;-75
2023/07/10 04:33:50;;;;;;;8.20;7.50;;;;;;;27.38;92.36;99597.38;5113969;28;20625;-75
2023/07/10 04:36:18;;;;;;;8.40;7.65;;;;;;;27.25;89.25;99601.94;5113802;28;20223;-76
2023/07/10 04:38:44;;;;;;;8.38;7.57;;;;;;;26.90;87.97;99604.03;5111946;28;20216;-74
2023/07/10 04:41:13;;;;;;;9.48;8.63;;;;;;;26.27;89.54;99597.31;5113756;28;20254;-75
2023/07/10 04:43:40;;;;;;;8.63;7.90;;;;;;;25.80;90.72;99598.25;5108063;28;20262;-77
2023/07/10 04:46:09;;;;;;;8.65;7.95;;;;;;;25.53;92.06;99604.75;5113835;28;20268;-78
2023/07/10 04:48:36;;;;;;;8.60;7.80;;;;;;;25.40;93.09;99608.44;5104958;28;20689;-76
2023/07/10 04:51:04;;;;;;;8.50;7.75;;;;;;;25.24;94.43;99610.00;5108881;28;20724;-75
2023/07/10 04:53:32;;;;;;;8.10;7.40;;;;;;;25.02;95.13;99615.53;5086816;28;20222;-77
2023/07/10 04:56:00;;;;;;;8.02;7.43;;;;;;;24.84;97.94;99612.69;5110866;28;20219;-77
2023/07/10 04:58:28;;;;;;;8.07;7.32;;;;;;;24.82;97.64;99611.38;5100471;28;20195;-76
2023/07/10 05:01:00;;;;;;;8.68;7.88;;;;;;;24.88;96.97;99607.41;5103531;28;20218;-76
2023/07/10 05:03:26;;;;;;;9.02;8.13;;;;;;;24.91;97.79;99612.28;5108885;28;20187;-75
2023/07/10 05:05:58;;;;;;;8.70;7.82;;;;;;;24.91;98.93;99613.09;5106637;28;20222;-76
2023/07/10 05:08:26;;;;;;;9.30;8.50;;;;;;;24.88;98.17;99621.91;5087308;28;20242;-75
2023/07/10 05:10:54;;;;;;;9.10;8.27;;;;;;;24.72;99.83;99615.19;5086743;28;20542;-76
2023/07/10 05:13:24;;;;;;;8.60;7.82;;;;;;;24.70;100.00;99622.91;5087722;28;20231;-75
2023/07/10 05:15:52;;;;;;;11.55;8.40;;;;;;;24.86;100.00;99620.59;5101324;28;20298;-77
2023/07/10 05:18:19;;;;;;;9.18;8.35;;;;;;;24.95;100.00;99613.25;5104582;28;20195;-77
2023/07/10 05:20:47;;;;;;;9.00;8.15;;;;;;;25.16;100.00;99621.72;5102356;28;20227;-76
2023/07/10 05:23:15;;;;;;;9.05;8.30;;;;;;;25.32;100.00;99612.78;5089207;28;20237;-75
2023/07/10 05:26:13;;;;;;;9.30;8.27;;;;;;;25.64;100.00;99621.78;5101477;28;20202;-75
2023/07/10 05:28:40;;;;;;;8.63;8.02;;;;;;;25.91;98.20;99616.00;5095517;28;20631;-75
2023/07/10 05:31:09;;;;;;;9.10;8.30;;;;;;;26.09;98.26;99622.31;5107319;28;20637;-77
2023/07/10 05:33:37;;;;;;;8.60;7.80;;;;;;;26.27;96.58;99624.78;5099865;28;20188;-77
2023/07/10 05:36:06;;;;;;;9.40;8.60;;;;;;;26.28;95.92;99631.88;5100933;28;20245;-75
2023/07/10 05:38:34;;;;;;;9.32;8.27;;;;;;;26.53;94.04;99623.97;5079416;28;20191;-79
2023/07/10 05:41:02;;;;;;;8.95;8.05;;;;;;;26.67;92.40;99624.59;5100130;28;20240;-79
2023/07/10 05:43:29;;;;;;;9.77;8.80;;;;;;;26.79;91.56;99623.91;5095266;28;20218;-78
2023/07/10 05:45:56;;;;;;;9.57;8.57;;;;;;;26.91;91.26;99618.59;5106399;28;20193;-77
2023/07/10 05:48:23;;;;;;;8.25;7.50;;;;;;;27.00;90.06;99624.88;5106227;28;20557;-78
2023/07/10 05:50:50;;;;;;;8.95;7.88;;;;;;;27.16;89.67;99625.94;5104785;28;20290;-76
2023/07/10 05:53:17;;;;;;;9.18;8.05;;;;;;;27.13;89.98;99629.34;5106712;28;20208;-76
2023/07/10 05:55:49;;;;;;;10.35;8.00;;;;;;;27.30;90.47;99634.78;5107041;28;20191;-77
2023/07/10 05:58:16;;;;;;;9.32;7.93;;;;;;;27.47;88.12;99634.72;5107943;28;20207;-76
2023/07/10 06:00:43;;;;;;;9.30;8.20;;;;;;;27.46;87.82;99638.59;5107694;28;20288;-78
2023/07/10 06:03:10;;;;;;;9.30;8.40;;;;;;;27.65;87.58;99645.66;5107885;28;20199;-78
2023/07/10 06:05:37;;;;;;;12.07;8.20;;;;;;;27.59;87.30;99648.59;5112130;28;20258;-76
2023/07/10 06:08:05;;;;;;;9.23;8.20;;;;;;;27.61;89.74;99647.47;5106258;28;20192;-76
2023/07/10 06:10:35;;;;;;;12.57;8.95;;;;;;;27.48;91.84;99635.53;5109055;28;20283;-78
2023/07/10 06:13:01;;;;;;;15.90;8.30;;;;;;;27.53;91.34;99630.66;5108719;28;20270;-77
2023/07/10 06:15:28;;;;;;;12.57;8.93;;;;;;;27.66;91.92;99633.50;5102516;28;20728;-79
2023/07/10 06:17:55;;;;;;;15.60;8.50;;;;;;;27.65;92.88;99637.41;5111870;28;20697;-76
2023/07/10 06:20:21;;;;;;;10.15;8.20;;;;;;;27.91;91.44;99640.78;5110084;28;20253;-79
2023/07/10 06:22:48;;;;;;;11.98;8.02;;;;;;;28.06;91.68;99636.63;5105981;28;20187;-78
2023/07/10 06:25:15;;;;;;;10.02;8.18;;;;;;;28.29;89.86;99632.44;5104136;28;20188;-79
2023/07/10 06:27:41;;;;;;;15.60;8.20;;;;;;;28.62;88.52;99633.28;5101822;28;20369;-79
2023/07/10 06:30:08;;;;;;;14.45;8.40;;;;;;;28.79;88.57;99627.63;5096397;28;20215;-78
2023/07/10 06:32:36;;;;;;;11.63;8.02;;;;;;;28.81;87.77;99624.53;5112364;28;20733;-78
2023/07/10 06:35:05;;;;;;;11.70;8.05;;;;;;;28.51;88.03;99632.06;5112109;28;20678;-79
2023/07/10 06:37:32;;;;;;;12.05;8.13;;;;;;;28.78;85.74;99633.50;5094017;28;20206;-79
2023/07/10 06:40:07;;;;;;;10.13;8.20;;;;;;;29.04;85.24;99638.72;5109104;28;20223;-79
2023/07/10 06:42:34;;;;;;;11.40;8.30;;;;;;;29.03;84.19;99632.38;5102668;28;20207;-77
2023/07/10 06:45:00;;;;;;;11.85;7.80;;;;;;;28.73;85.80;99633.69;5093926;28;20676;-77
2023/07/10 06:47:27;;;;;;;11.23;7.57;;;;;;;28.66;80.30;99636.16;5096736;28;20244;-78
2023/07/10 06:49:54;;;;;;;7.80;7.00;;;;;;;28.86;76.81;99635.34;5099842;28;20199;-77
2023/07/10 06:52:20;;;;;;;9.60;7.53;;;;;;;28.94;75.13;99626.16;5091489;28;20204;-77
2023/07/10 06:54:47;;;;;;;9.38;7.10;;;;;;;29.00;72.79;99627.56;5085695;28;20193;-77
2023/07/10 06:57:14;;;;;;;10.02;7.75;;;;;;;28.83;77.34;99625.00;5087339;28;20228;-78
2023/07/10 06:59:40;;;;;;;8.63;7.75;;;;;;;29.10;78.30;99624.38;5082021;28;20217;-77
2023/07/10 07:02:11;;;;;;;8.25;7.38;;;;;;;29.05;77.54;99619.06;5063365;28;20223;-76
2023/07/10 07:04:38;;;;;;;8.40;7.32;;;;;;;29.29;77.78;99623.81;5088228;28;20303;-76
2023/07/10 07:07:06;;;;;;;8.18;7.22;;;;;;;29.28;75.02;99623.00;5089139;28;20193;-76
2023/07/10 07:09:33;;;;;;;7.88;7.18;;;;;;;29.37;72.49;99620.16;5087665;28;20195;-78
2023/07/10 07:11:59;;;;;;;7.47;6.72;;;;;;;29.21;71.65;99627.47;5091105;28;20609;-76
2023/07/10 07:14:26;;;;;;;7.72;6.90;;;;;;;29.36;72.64;99615.78;5090657;28;20208;-77
2023/07/10 07:16:54;;;;;;;7.93;7.13;;;;;;;29.17;73.44;99610.81;5089275;28;20223;-78
2023/07/10 07:19:21;;;;;;;7.65;6.95;;;;;;;29.52;74.55;99604.88;5092727;28;20224;-76
2023/07/10 07:21:47;;;;;;;6.93;6.32;;;;;;;29.39;73.80;99612.34;5090400;28;20220;-77
2023/07/10 07:24:14;;;;;;;7.65;6.95;;;;;;;29.61;73.70;99613.84;5095269;28;20241;-77
2023/07/10 07:26:41;;;;;;;7.45;6.72;;;;;;;29.75;72.25;99612.34;5088021;28;20249;-79
2023/07/10 07:29:07;;;;;;;7.72;7.07;;;;;;;29.64;72.19;99613.13;5096951;28;20615;-77
2023/07/10 07:31:34;;;;;;;7.07;6.30;;;;;;;29.53;70.01;99612.81;5090755;28;20219;-78
2023/07/10 07:34:00;;;;;;;7.07;6.38;;;;;;;29.83;70.40;99616.09;5091622;28;20193;-79
2023/07/10 07:36:32;;;;;;;7.60;6.82;;;;;;;30.12;69.36;99618.63;5094888;28;20316;-77
2023/07/10 07:38:58;;;;;;;7.30;6.60;;;;;;;29.97;67.97;99613.00;5098730;28;20185;-78
2023/07/10 07:41:25;;;;;;;7.22;6.55;;;;;;;29.89;68.72;99614.75;5101844;28;20269;-78
2023/07/10 07:43:52;;;;;;;7.75;6.93;;;;;;;30.17;67.56;99609.28;5101030;28;20237;-77
2023/07/10 07:46:18;;;;;;;7.43;6.70;;;;;;;29.86;69.28;99606.34;5102144;28;20208;-78
2023/07/10 07:48:45;;;;;;;6.88;6.38;;;;;;;29.62;68.97;99607.97;5103226;28;20277;-78
2023/07/10 07:51:12;;;;;;;7.07;6.38;;;;;;;29.85;70.96;99604.72;5102263;28;20183;-78
2023/07/10 07:53:41;;;;;;;7.43;6.75;;;;;;;29.96;68.96;99598.38;5106874;28;20189;-78
2023/07/10 07:56:08;;;;;;;7.43;6.65;;;;;;;30.23;67.78;99609.84;5099104;28;20266;-77
2023/07/10 07:58:35;;;;;;;7.07;6.43;;;;;;;30.15;67.10;99597.75;5087680;28;20189;-76
2023/07/10 08:01:02;;;;;;;6.68;6.05;;;;;;;30.34;67.51;99592.41;5089305;28;20702;-76
2023/07/10 08:03:29;;;;;;;6.68;6.07;;;;;;;30.57;66.20;99601.75;5088399;28;20192;-76
2023/07/10 08:05:56;;;;;;;7.03;6.40;;;;;;;30.71;65.94;99597.78;5094075;28;20190;-77
2023/07/10 08:08:23;;;;;;;6.55;5.70;;;;;;;30.84;64.17;99594.56;5086478;28;20620;-77
2023/07/10 08:10:50;;;;;;;6.60;5.82;;;;;;;30.80;63.57;99598.41;5088881;28;20279;-77
2023/07/10 08:13:19;;;;;;;7.25;6.55;;;;;;;30.39;62.66;99592.16;5090255;28;20188;-78
2023/07/10 08:15:46;;;;;;;6.88;6.30;;;;;;;30.22;63.82;99588.88;5109963;28;20220;-77
2023/07/10 08:18:12;;;;;;;6.80;6.30;;;;;;;30.50;65.74;99596.06;5105239;28;20207;-77
2023/07/10 08:20:39;;;;;;;6.97;6.35;;;;;;;30.99;62.89;99584.69;5106778;28;20220;-77
2023/07/10 08:23:06;;;;;;;7.75;6.60;;;;;;;31.39;62.56;99579.81;5105867;28;20719;-78
2023/07/10 08:25:33;;;;;;;7.18;6.47;;;;;;;31.63;59.12;99589.09;5111427;28;20183;-77
2023/07/10 08:28:00;;;;;;;6.95;6.45;;;;;;;31.76;58.26;99593.34;5114222;28;20196;-78
2023/07/10 08:30:27;;;;;;;6.70;6.20;;;;;;;31.41;61.08;99577.47;5114320;28;20264;-78
2023/07/10 08:32:54;;;;;;;7.47;6.78;;;;;;;31.79;60.99;99574.03;5109127;28;20286;-77
2023/07/10 08:35:22;;;;;;;7.00;6.45;;;;;;;31.84;60.61;99578.47;5110874;28;20207;-78
2023/07/10 08:37:49;;;;;;;7.10;6.43;;;;;;;31.87;59.61;99578.53;5111951;28;20257;-76
2023/07/10 08:40:28;;;;;;;7.18;6.43;;;;;;;32.00;58.96;99575.66;5112996;28;20212;-79
2023/07/10 08:42:55;;;;;;;6.78;6.07;;;;;;;32.18;56.44;99572.13;5095798;28;20192;-78
2023/07/10 08:45:42;;;;;;;6.78;6.18;;;;;;;32.31;56.16;99561.69;5113972;28;20237;-78
2023/07/10 08:48:30;;;;;;;6.80;6.28;;;;;;;32.28;56.00;99560.47;5113618;28;20223;-77
2023/07/10 08:51:01;;;;;;;6.78;6.28;;;;;;;32.72;55.47;99560.91;5088850;28;20188;-79
2023/07/10 08:53:28;;;;;;;7.93;6.57;;;;;;;33.18;54.50;99553.41;5095797;28;20270;-77
2023/07/10 08:56:02;;;;;;;6.78;6.22;;;;;;;33.51;53.83;99561.06;5095745;28;20200;-78
2023/07/10 08:58:34;;;;;;;7.18;6.57;;;;;;;33.49;53.13;99555.09;5078575;28;20669;-78
2023/07/10 09:01:02;;;;;;;6.95;6.35;;;;;;;33.75;53.92;99554.28;5110681;28;20268;-78
2023/07/10 09:03:33;;;;;;;6.80;6.20;;;;;;;34.02;51.74;99546.69;5112803;28;20236;-83
2023/07/10 09:06:03;;;;;;;7.22;6.53;;;;;;;33.79;51.63;99549.56;5112167;28;20198;-78
2023/07/10 09:08:31;;;;;;;6.30;5.80;;;;;;;33.72;52.43;99549.50;5101207;28;20303;-78
2023/07/10 09:11:02;;;;;;;6.68;6.07;;;;;;;34.14;51.73;99542.88;5107115;28;20607;-78
2023/07/10 09:13:40;;;;;;;6.28;5.78;;;;;;;33.92;51.96;99550.94;5111128;28;20222;-78
2023/07/10 09:16:14;;;;;;;6.30;5.80;;;;;;;34.24;49.23;99543.03;5071847;28;20266;-77
2023/07/10 09:18:47;;;;;;;7.20;5.95;;;;;;;34.52;49.39;99544.53;5087174;28;20284;-78
2023/07/10 09:21:20;;;;;;;6.35;5.75;;;;;;;34.78;48.71;99544.41;5091560;28;20207;-78
2023/07/10 09:23:48;;;;;;;6.82;6.22;;;;;;;34.69;48.82;99538.38;5090838;28;20200;-77
2023/07/10 09:26:18;;;;;;;6.13;5.70;;;;;;;35.05;48.63;99536.69;5097842;28;20266;-77
2023/07/10 09:29:00;;;;;;;6.88;6.30;;;;;;;35.12;45.91;99540.34;5094287;28;20192;-78
2023/07/10 09:31:44;;;;;;;7.03;6.35;;;;;;;35.33;45.79;99537.72;5084753;28;20188;-78
2023/07/10 09:34:11;;;;;;;7.20;6.70;;;;;;;35.62;44.45;99537.91;5096753;28;20208;-75
2023/07/10 09:36:38;;;;;;;7.03;6.53;;;;;;;35.87;43.60;99530.53;5087211;28;20197;-78
2023/07/10 09:39:05;;;;;;;6.88;6.38;;;;;;;36.16;43.71;99529.44;5089484;28;20181;-79
2023/07/10 09:41:32;;;;;;;6.80;6.20;;;;;;;36.31;42.16;99524.72;5092492;28;20235;-79
2023/07/10 09:44:05;;;;;;;7.03;6.47;;;;;;;36.71;41.74;99529.22;5090403;28;20188;-79
2023/07/10 09:46:36;;;;;;;6.65;5.97;;;;;;;37.10;41.94;99526.44;5066299;28;20193;-79
2023/07/10 09:49:10;;;;;;;6.55;6.05;;;;;;;37.57;41.21;99522.41;5086929;28;20239;-77
2023/07/10 09:51:50;;;;;;;7.38;6.70;;;;;;;37.89;40.55;99525.09;5087559;28;20277;-75
2023/07/10 09:54:16;;;;;;;7.10;6.43;;;;;;;38.14;40.59;99525.03;5068293;28;20192;-76
2023/07/10 09:56:47;;;;;;;7.13;6.40;;;;;;;38.22;40.07;99518.97;5088690;28;20247;-78
2023/07/10 09:59:21;;;;;;;6.60;6.10;;;;;;;38.21;41.40;99517.41;5087019;28;20189;-79
2023/07/10 10:01:50;;;;;;;7.00;6.40;;;;;;;38.27;39.07;99507.38;5067004;28;20608;-78
2023/07/10 10:04:23;;;;;;;6.95;6.40;;;;;;;37.52;41.12;99508.81;5086800;28;20225;-77
2023/07/10 10:07:01;;;;;;;6.72;6.22;;;;;;;37.34;41.55;99506.06;5070684;28;20275;-78
2023/07/10 10:09:29;;;;;;;6.68;6.18;;;;;;;36.84;40.77;99512.88;5084708;28;20203;-75
2023/07/10 10:12:12;;;;;;;7.45;6.82;;;;;;;37.22;40.75;99509.31;5090923;28;20189;-79
2023/07/10 10:14:42;;;;;;;6.88;6.25;;;;;;;37.36;40.74;99502.88;5085247;28;20235;-78
2023/07/10 10:17:11;;;;;;;7.60;6.95;;;;;;;37.53;40.67;99495.69;5072053;28;20211;-78
2023/07/10 10:19:42;;;;;;;7.47;6.88;;;;;;;37.25;40.46;99499.31;5089651;28;20614;-79
2023/07/10 10:22:13;;;;;;;7.03;6.40;;;;;;;37.02;39.21;99494.94;5069534;28;20308;-76
2023/07/10 10:24:40;;;;;;;9.50;6.72;;;;;;;36.72;39.22;99494.53;5071516;28;20666;-79
2023/07/10 10:27:32;;;;;;;8.25;7.13;;;;;;;36.81;39.76;99492.16;5078163;28;20187;-78
2023/07/10 10:30:17;;;;;;;6.97;6.38;;;;;;;37.06;39.50;99492.13;5108252;28;20192;-77
2023/07/10 10:32:54;;;;;;;7.15;6.43;;;;;;;37.33;41.05;99495.31;5112101;28;20291;-78
2023/07/10 10:35:48;;;;;;;6.95;6.32;;;;;;;36.21;41.32;99491.25;5091191;28;20249;-77
2023/07/10 10:38:37;;;;;;;7.30;6.55;;;;;;;36.52;41.18;99480.13;5109744;28;20196;-77
2023/07/10 10:41:03;;;;;;;6.95;6.35;;;;;;;36.85;40.86;99479.00;5111272;28;20207;-78
2023/07/10 10:43:33;;;;;;;7.50;6.72;;;;;;;37.22;40.05;99481.38;5111535;28;20217;-78
2023/07/10 10:46:21;;;;;;;7.43;6.25;;;;;;;37.68;40.73;99475.69;5106526;28;20190;-78
2023/07/10 10:49:01;;;;;;;7.00;6.40;;;;;;;37.86;37.63;99482.00;5112012;28;20314;-78
2023/07/10 10:51:35;;;;;;;7.88;6.43;;;;;;;38.15;38.24;99471.50;5093633;28;20230;-78
2023/07/10 10:54:14;;;;;;;7.63;6.40;;;;;;;37.96;37.43;99465.56;5109464;28;20202;-78
2023/07/10 10:57:00;;;;;;;6.82;6.32;;;;;;;38.36;36.87;99469.78;5112189;28;20195;-78
2023/07/10 10:59:42;;;;;;;6.80;6.13;;;;;;;38.94;37.57;99466.16;5093968;28;20206;-79
2023/07/10 11:02:44;;;;;;;7.28;6.60;;;;;;;38.19;37.04;99458.28;5094057;28;20211;-79
2023/07/10 11:05:35;;;;;;;6.53;5.93;;;;;;;38.68;37.13;99457.13;5087293;28;20716;-79
2023/07/10 11:08:08;;;;;;;7.88;6.60;;;;;;;38.65;40.18;99449.56;5090803;28;20742;-78
2023/07/10 11:10:37;;;;;;;6.90;6.18;;;;;;;39.14;38.09;99439.94;5075158;28;20660;-78
2023/07/10 11:13:05;;;;;;;6.97;6.43;;;;;;;39.18;36.59;99443.50;5077948;28;20213;-76
2023/07/10 11:15:33;;;;;;;7.65;7.05;;;;;;;38.42;36.90;99437.31;5074814;28;20236;-78
2023/07/10 11:18:01;;;;;;;7.43;6.70;;;;;;;39.18;36.99;99440.69;5070337;28;20192;-77
2023/07/10 11:20:27;;;;;;;6.60;5.97;;;;;;;38.96;36.00;99430.13;5064471;28;20185;-77
2023/07/10 11:22:57;;;;;;;7.25;6.55;;;;;;;39.03;36.88;99425.25;5070308;28;20301;-78
2023/07/10 11:25:30;;;;;;;7.22;6.53;;;;;;;39.38;36.12;99431.72;5072355;28;20264;-77
2023/07/10 11:28:20;;;;;;;7.18;6.47;;;;;;;39.32;34.74;99422.16;5075205;28;20196;-76
2023/07/10 11:30:47;;;;;;;6.93;6.30;;;;;;;39.66;33.72;99417.34;5073970;28;20229;-77
2023/07/10 11:33:19;;;;;;;6.47;5.97;;;;;;;39.95;32.98;99412.94;5069478;28;20292;-78
2023/07/10 11:36:10;;;;;;;6.03;5.53;;;;;;;40.15;31.93;99415.06;5077121;28;20568;-77
2023/07/10 11:39:05;;;;;;;6.95;6.28;;;;;;;40.60;32.88;99410.78;5078043;28;20189;-76
2023/07/10 11:41:34;;;;;;;6.97;6.38;;;;;;;40.77;33.89;99414.53;5074777;28;20209;-79
2023/07/10 11:44:31;;;;;;;6.53;6.03;;;;;;;41.09;32.59;99411.94;5080584;28;20213;-75